sensor_id;sensor_type;location;lat;lon;timestamp;pressure;altitude;pressure_sealevel;temperature;humidity
37856;BME280;23694;43.274;26.924;2023-08-30T00:00:05;97867.63;;;24.06;76.35
37856;BME280;23694;43.274;26.924;2023-08-30T00:02:51;97871.22;;;23.61;82.11
37856;BME280;23694;43.274;26.924;2023-08-30T00:05:29;97866.72;;;23.49;83.62
37856;BME280;23694;43.274;26.924;2023-08-30T00:08:03;97870.03;;;23.37;86.35
37856;BME280;23694;43.274;26.924;2023-08-30T00:10:41;97867.06;;;23.65;86.55
37856;BME280;23694;43.274;26.924;2023-08-30T00:13:39;97869.31;;;23.68;87.40
37856;BME280;23694;43.274;26.924;2023-08-30T00:16:11;97861.22;;;23.82;89.29
37856;BME280;23694;43.274;26.924;2023-08-30T00:19:04;97863.94;;;23.75;90.45
37856;BME280;23694;43.274;26.924;2023-08-30T00:21:44;97865.56;;;23.76;92.06
37856;BME280;23694;43.274;26.924;2023-08-30T00:24:25;97863.41;;;23.91;92.68
37856;BME280;23694;43.274;26.924;2023-08-30T00:27:32;97858.72;;;23.87;94.26
37856;BME280;23694;43.274;26.924;2023-08-30T00:30:07;97860.00;;;23.78;95.48
37856;BME280;23694;43.274;26.924;2023-08-30T00:32:48;97864.25;;;23.47;97.39
37856;BME280;23694;43.274;26.924;2023-08-30T00:35:46;97858.69;;;23.55;98.03
37856;BME280;23694;43.274;26.924;2023-08-30T00:38:16;97858.53;;;23.44;99.08
37856;BME280;23694;43.274;26.924;2023-08-30T00:40:57;97857.25;;;23.53;98.69
37856;BME280;23694;43.274;26.924;2023-08-30T00:43:33;97856.81;;;23.62;98.31
37856;BME280;23694;43.274;26.924;2023-08-30T00:46:04;97855.53;;;23.71;97.37
37856;BME280;23694;43.274;26.924;2023-08-30T00:48:36;97853.84;;;23.77;96.00
37856;BME280;23694;43.274;26.924;2023-08-30T00:51:35;97857.50;;;23.45;99.78
37856;BME280;23694;43.274;26.924;2023-08-30T00:54:13;97859.81;;;23.21;100.00
37856;BME280;23694;43.274;26.924;2023-08-30T00:56:49;97847.63;;;23.38;100.00
37856;BME280;23694;43.274;26.924;2023-08-30T00:59:37;97850.47;;;23.57;97.23
37856;BME280;23694;43.274;26.924;2023-08-30T01:02:22;97859.41;;;23.76;93.76
37856;BME280;23694;43.274;26.924;2023-08-30T01:05:06;97855.41;;;23.91;88.45
37856;BME280;23694;43.274;26.924;2023-08-30T01:07:57;97854.06;;;24.07;85.19
37856;BME280;23694;43.274;26.924;2023-08-30T01:11:03;97859.22;;;24.09;83.74
37856;BME280;23694;43.274;26.924;2023-08-30T01:14:04;97859.94;;;24.22;82.07
37856;BME280;23694;43.274;26.924;2023-08-30T01:19:58;97860.97;;;24.21;79.04
37856;BME280;23694;43.274;26.924;2023-08-30T01:28:33;97862.00;;;24.20;76.94
37856;BME280;23694;43.274;26.924;2023-08-30T01:31:10;97864.03;;;24.25;76.88
37856;BME280;23694;43.274;26.924;2023-08-30T01:36:38;97860.06;;;24.34;76.37
37856;BME280;23694;43.274;26.924;2023-08-30T01:39:22;97851.66;;;24.30;76.30
37856;BME280;23694;43.274;26.924;2023-08-30T01:42:05;97854.13;;;24.32;76.32
37856;BME280;23694;43.274;26.924;2023-08-30T01:44:53;97856.19;;;24.30;76.33
37856;BME280;23694;43.274;26.924;2023-08-30T01:47:33;97860.22;;;24.39;76.67
37856;BME280;23694;43.274;26.924;2023-08-30T01:50:12;97864.25;;;24.48;75.85
37856;BME280;23694;43.274;26.924;2023-08-30T01:52:49;97854.81;;;24.46;75.69
37856;BME280;23694;43.274;26.924;2023-08-30T01:55:37;97849.91;;;24.43;75.43
37856;BME280;23694;43.274;26.924;2023-08-30T01:58:05;97855.38;;;24.29;75.76
37856;BME280;23694;43.274;26.924;2023-08-30T02:00:53;97845.94;;;24.20;76.30
37856;BME280;23694;43.274;26.924;2023-08-30T02:03:47;97853.00;;;24.15;76.62
37856;BME280;23694;43.274;26.924;2023-08-30T02:06:46;97853.00;;;24.15;76.54
37856;BME280;23694;43.274;26.924;2023-08-30T02:09:39;97854.03;;;24.14;77.01
37856;BME280;23694;43.274;26.924;2023-08-30T02:12:16;97853.25;;;24.07;77.59
37856;BME280;23694;43.274;26.924;2023-08-30T02:14:56;97851.41;;;24.00;78.10
37856;BME280;23694;43.274;26.924;2023-08-30T02:23:09;97850.09;;;23.85;79.03
37856;BME280;23694;43.274;26.924;2023-08-30T02:26:00;97847.25;;;23.80;79.41
37856;BME280;23694;43.274;26.924;2023-08-30T02:31:39;97839.81;;;23.82;79.35
37856;BME280;23694;43.274;26.924;2023-08-30T02:37:05;97836.41;;;23.68;79.74
37856;BME280;23694;43.274;26.924;2023-08-30T02:39:50;97847.91;;;23.75;79.61
37856;BME280;23694;43.274;26.924;2023-08-30T02:42:40;97848.16;;;23.67;79.75
37856;BME280;23694;43.274;26.924;2023-08-30T02:45:30;97841.38;;;23.64;79.75
37856;BME280;23694;43.274;26.924;2023-08-30T02:48:10;97845.09;;;23.63;80.17
37856;BME280;23694;43.274;26.924;2023-08-30T02:50:45;97844.91;;;23.58;80.90
37856;BME280;23694;43.274;26.924;2023-08-30T02:53:29;97838.09;;;23.62;80.98
37856;BME280;23694;43.274;26.924;2023-08-30T02:56:15;97837.50;;;23.54;81.32
37856;BME280;23694;43.274;26.924;2023-08-30T02:59:07;97845.13;;;23.57;81.52
37856;BME280;23694;43.274;26.924;2023-08-30T03:01:51;97848.88;;;23.43;82.39
37856;BME280;23694;43.274;26.924;2023-08-30T03:04:42;97845.19;;;23.30;82.72
37856;BME280;23694;43.274;26.924;2023-08-30T03:07:22;97851.19;;;23.26;83.45
37856;BME280;23694;43.274;26.924;2023-08-30T03:10:04;97846.00;;;23.31;83.29
37856;BME280;23694;43.274;26.924;2023-08-30T03:12:45;97848.28;;;23.27;83.23
37856;BME280;23694;43.274;26.924;2023-08-30T03:15:25;97852.22;;;23.25;83.73
37856;BME280;23694;43.274;26.924;2023-08-30T03:17:59;97858.78;;;23.22;84.06
37856;BME280;23694;43.274;26.924;2023-08-30T03:23:27;97861.69;;;23.14;84.51
37856;BME280;23694;43.274;26.924;2023-08-30T03:25:56;97863.53;;;23.20;84.35
37856;BME280;23694;43.274;26.924;2023-08-30T03:28:30;97860.22;;;23.25;84.34
37856;BME280;23694;43.274;26.924;2023-08-30T03:31:13;97861.66;;;23.27;84.23
37856;BME280;23694;43.274;26.924;2023-08-30T03:33:45;97868.81;;;23.33;83.87
37856;BME280;23694;43.274;26.924;2023-08-30T03:36:25;97862.63;;;23.39;83.93
37856;BME280;23694;43.274;26.924;2023-08-30T03:38:59;97864.69;;;23.44;83.65
37856;BME280;23694;43.274;26.924;2023-08-30T03:41:31;97874.09;;;23.53;83.29
37856;BME280;23694;43.274;26.924;2023-08-30T03:44:07;97865.69;;;23.50;83.20
37856;BME280;23694;43.274;26.924;2023-08-30T03:46:51;97868.97;;;23.52;83.16
37856;BME280;23694;43.274;26.924;2023-08-30T03:49:37;97869.53;;;23.67;82.41
37856;BME280;23694;43.274;26.924;2023-08-30T03:55:02;97883.38;;;23.89;81.25
37856;BME280;23694;43.274;26.924;2023-08-30T03:57:32;97880.00;;;24.07;80.69
37856;BME280;23694;43.274;26.924;2023-08-30T04:00:02;97879.84;;;24.26;79.33
37856;BME280;23694;43.274;26.924;2023-08-30T04:02:33;97884.09;;;24.41;78.89
37856;BME280;23694;43.274;26.924;2023-08-30T04:05:02;97889.06;;;24.62;77.55
37856;BME280;23694;43.274;26.924;2023-08-30T04:07:30;97884.97;;;24.84;76.86
37856;BME280;23694;43.274;26.924;2023-08-30T04:09:57;97887.00;;;25.07;75.62
37856;BME280;23694;43.274;26.924;2023-08-30T04:12:33;97889.38;;;25.34;74.47
37856;BME280;23694;43.274;26.924;2023-08-30T04:15:09;97876.72;;;25.59;72.79
37856;BME280;23694;43.274;26.924;2023-08-30T04:17:45;97889.00;;;25.97;71.83
37856;BME280;23694;43.274;26.924;2023-08-30T04:23:30;97893.75;;;26.90;67.26
37856;BME280;23694;43.274;26.924;2023-08-30T04:26:07;97892.44;;;27.39;65.59
37856;BME280;23694;43.274;26.924;2023-08-30T04:28:48;97892.16;;;27.92;63.37
37856;BME280;23694;43.274;26.924;2023-08-30T04:31:54;97892.09;;;28.49;61.17
37856;BME280;23694;43.274;26.924;2023-08-30T04:37:33;97906.72;;;29.42;57.13
37856;BME280;23694;43.274;26.924;2023-08-30T04:40:08;97902.00;;;29.76;56.27
37856;BME280;23694;43.274;26.924;2023-08-30T04:42:45;97901.44;;;30.23;54.99
37856;BME280;23694;43.274;26.924;2023-08-30T04:45:26;97900.81;;;30.70;53.05
37856;BME280;23694;43.274;26.924;2023-08-30T04:48:07;97908.44;;;30.51;53.53
37856;BME280;23694;43.274;26.924;2023-08-30T04:50:48;97894.63;;;30.15;54.31
37856;BME280;23694;43.274;26.924;2023-08-30T04:53:20;97893.84;;;29.93;57.52
37856;BME280;23694;43.274;26.924;2023-08-30T04:55:54;97888.44;;;29.93;59.34
37856;BME280;23694;43.274;26.924;2023-08-30T05:01:30;97884.41;;;29.47;60.39
37856;BME280;23694;43.274;26.924;2023-08-30T05:04:15;97884.25;;;28.81;64.28
37856;BME280;23694;43.274;26.924;2023-08-30T05:07:04;97888.28;;;28.79;67.39
37856;BME280;23694;43.274;26.924;2023-08-30T05:09:35;97891.59;;;29.02;68.33
37856;BME280;23694;43.274;26.924;2023-08-30T05:12:35;97890.72;;;29.35;66.39
37856;BME280;23694;43.274;26.924;2023-08-30T05:18:38;97898.94;;;29.67;66.81
37856;BME280;23694;43.274;26.924;2023-08-30T05:21:34;97913.03;;;30.50;61.74
37856;BME280;23694;43.274;26.924;2023-08-30T05:24:11;97902.41;;;29.24;66.96
37856;BME280;23694;43.274;26.924;2023-08-30T05:27:05;97906.16;;;28.51;72.86
37856;BME280;23694;43.274;26.924;2023-08-30T05:29:54;97908.69;;;29.47;69.10
37856;BME280;23694;43.274;26.924;2023-08-30T05:32:56;97911.03;;;30.09;64.82
37856;BME280;23694;43.274;26.924;2023-08-30T05:35:42;97921.94;;;28.93;71.00
37856;BME280;23694;43.274;26.924;2023-08-30T05:38:28;97912.69;;;29.66;67.32
37856;BME280;23694;43.274;26.924;2023-08-30T05:41:34;97919.00;;;29.77;67.04
37856;BME280;23694;43.274;26.924;2023-08-30T05:44:15;97914.97;;;30.87;63.22
37856;BME280;23694;43.274;26.924;2023-08-30T05:46:54;97917.78;;;31.49;59.15
37856;BME280;23694;43.274;26.924;2023-08-30T05:55:34;97914.66;;;26.88;80.14
37856;BME280;23694;43.274;26.924;2023-08-30T05:58:27;97920.34;;;26.44;84.65
37856;BME280;23694;43.274;26.924;2023-08-30T06:01:10;97918.78;;;25.77;89.07
37856;BME280;23694;43.274;26.924;2023-08-30T06:04:04;97922.84;;;25.98;86.33
37856;BME280;23694;43.274;26.924;2023-08-30T06:06:49;97925.06;;;26.31;85.13
37856;BME280;23694;43.274;26.924;2023-08-30T06:09:36;97939.56;;;26.83;83.50
37856;BME280;23694;43.274;26.924;2023-08-30T06:15:44;97935.50;;;27.04;81.36
37856;BME280;23694;43.274;26.924;2023-08-30T06:18:28;97939.91;;;26.87;81.83
37856;BME280;23694;43.274;26.924;2023-08-30T06:21:14;97932.53;;;26.94;81.67
37856;BME280;23694;43.274;26.924;2023-08-30T06:26:49;97938.88;;;25.13;93.22
37856;BME280;23694;43.274;26.924;2023-08-30T06:29:38;97940.78;;;25.49;91.41
37856;BME280;23694;43.274;26.924;2023-08-30T06:38:12;97935.84;;;24.84;93.55
37856;BME280;23694;43.274;26.924;2023-08-30T06:41:05;97938.41;;;24.73;94.84
37856;BME280;23694;43.274;26.924;2023-08-30T06:43:44;97936.50;;;25.05;94.69
37856;BME280;23694;43.274;26.924;2023-08-30T06:49:26;97944.13;;;25.81;87.96
37856;BME280;23694;43.274;26.924;2023-08-30T06:52:11;97937.34;;;25.42;89.86
37856;BME280;23694;43.274;26.924;2023-08-30T06:55:04;97941.72;;;26.63;83.53
37856;BME280;23694;43.274;26.924;2023-08-30T06:57:37;97943.47;;;25.49;86.75
37856;BME280;23694;43.274;26.924;2023-08-30T07:00:31;97950.25;;;26.00;84.70
37856;BME280;23694;43.274;26.924;2023-08-30T07:03:07;97947.59;;;26.71;80.26
37856;BME280;23694;43.274;26.924;2023-08-30T07:05:44;97953.72;;;27.02;78.90
37856;BME280;23694;43.274;26.924;2023-08-30T07:08:23;97951.50;;;27.10;78.20
37856;BME280;23694;43.274;26.924;2023-08-30T07:11:00;97954.97;;;26.34;82.11
37856;BME280;23694;43.274;26.924;2023-08-30T07:13:43;97963.19;;;25.91;85.62
37856;BME280;23694;43.274;26.924;2023-08-30T07:19:04;97959.09;;;27.37;78.89
37856;BME280;23694;43.274;26.924;2023-08-30T07:24:39;97946.13;;;26.45;79.11
37856;BME280;23694;43.274;26.924;2023-08-30T07:27:38;97958.81;;;26.92;77.62
37856;BME280;23694;43.274;26.924;2023-08-30T07:30:11;97951.38;;;27.40;76.50
37856;BME280;23694;43.274;26.924;2023-08-30T07:33:02;97958.50;;;27.11;77.76
37856;BME280;23694;43.274;26.924;2023-08-30T07:35:40;97944.47;;;26.86;76.72
37856;BME280;23694;43.274;26.924;2023-08-30T07:38:28;97956.41;;;27.37;70.91
37856;BME280;23694;43.274;26.924;2023-08-30T07:41:02;97957.22;;;27.37;72.07
37856;BME280;23694;43.274;26.924;2023-08-30T07:44:00;97955.56;;;28.00;69.67
37856;BME280;23694;43.274;26.924;2023-08-30T07:47:06;97950.31;;;27.93;70.14
37856;BME280;23694;43.274;26.924;2023-08-30T07:49:40;97956.97;;;27.62;71.62
37856;BME280;23694;43.274;26.924;2023-08-30T07:52:31;97954.25;;;27.74;72.18
37856;BME280;23694;43.274;26.924;2023-08-30T07:55:28;97964.09;;;28.08;71.49
37856;BME280;23694;43.274;26.924;2023-08-30T07:58:21;97944.63;;;28.80;67.26
37856;BME280;23694;43.274;26.924;2023-08-30T08:04:08;97942.50;;;28.65;68.31
37856;BME280;23694;43.274;26.924;2023-08-30T08:06:47;97946.34;;;28.86;67.48
37856;BME280;23694;43.274;26.924;2023-08-30T08:09:35;97941.09;;;28.46;68.15
37856;BME280;23694;43.274;26.924;2023-08-30T08:12:08;97939.88;;;27.68;70.18
37856;BME280;23694;43.274;26.924;2023-08-30T08:20:36;97939.66;;;28.89;63.01
37856;BME280;23694;43.274;26.924;2023-08-30T08:23:21;97931.63;;;28.77;63.47
37856;BME280;23694;43.274;26.924;2023-08-30T08:25:59;97947.94;;;28.54;62.54
37856;BME280;23694;43.274;26.924;2023-08-30T08:28:37;97944.44;;;28.53;61.20
37856;BME280;23694;43.274;26.924;2023-08-30T08:31:08;97940.81;;;29.48;57.93
37856;BME280;23694;43.274;26.924;2023-08-30T08:34:22;97945.63;;;29.90;58.56
37856;BME280;23694;43.274;26.924;2023-08-30T08:36:59;97935.97;;;28.78;61.66
37856;BME280;23694;43.274;26.924;2023-08-30T08:42:39;97926.53;;;30.18;54.58
37856;BME280;23694;43.274;26.924;2023-08-30T08:45:48;97920.34;;;29.74;55.84
37856;BME280;23694;43.274;26.924;2023-08-30T08:48:31;97922.50;;;28.61;59.82
37856;BME280;23694;43.274;26.924;2023-08-30T08:51:07;97911.88;;;28.09;60.05
37856;BME280;23694;43.274;26.924;2023-08-30T08:53:52;97918.16;;;28.15;59.46
37856;BME280;23694;43.274;26.924;2023-08-30T08:56:37;97917.25;;;28.38;59.79
37856;BME280;23694;43.274;26.924;2023-08-30T09:02:40;97921.28;;;28.86;60.82
37856;BME280;23694;43.274;26.924;2023-08-30T09:05:15;97915.00;;;29.79;58.09
37856;BME280;23694;43.274;26.924;2023-08-30T09:07:57;97913.56;;;29.93;56.58
37856;BME280;23694;43.274;26.924;2023-08-30T09:10:40;97911.56;;;28.85;60.03
37856;BME280;23694;43.274;26.924;2023-08-30T09:16:10;97898.00;;;29.57;55.67
37856;BME280;23694;43.274;26.924;2023-08-30T09:19:04;97911.75;;;30.26;53.74
37856;BME280;23694;43.274;26.924;2023-08-30T09:25:05;97910.16;;;29.38;56.49
37856;BME280;23694;43.274;26.924;2023-08-30T09:30:39;97900.41;;;29.53;55.08
37856;BME280;23694;43.274;26.924;2023-08-30T09:33:37;97898.06;;;29.62;53.98
37856;BME280;23694;43.274;26.924;2023-08-30T09:39:33;97883.53;;;29.90;52.19
37856;BME280;23694;43.274;26.924;2023-08-30T09:42:05;97898.00;;;29.79;52.52
37856;BME280;23694;43.274;26.924;2023-08-30T09:44:46;97882.34;;;29.81;53.16
37856;BME280;23694;43.274;26.924;2023-08-30T09:47:32;97874.13;;;29.92;51.96
37856;BME280;23694;43.274;26.924;2023-08-30T09:53:14;97874.59;;;30.43;48.66
37856;BME280;23694;43.274;26.924;2023-08-30T09:56:04;97871.22;;;29.50;49.91
37856;BME280;23694;43.274;26.924;2023-08-30T10:01:45;97873.03;;;30.15;49.14
37856;BME280;23694;43.274;26.924;2023-08-30T10:04:54;97874.28;;;30.35;48.66
37856;BME280;23694;43.274;26.924;2023-08-30T10:07:31;97867.78;;;30.63;47.58
37856;BME280;23694;43.274;26.924;2023-08-30T10:10:11;97866.44;;;30.65;47.69
37856;BME280;23694;43.274;26.924;2023-08-30T10:15:48;97855.94;;;30.69;47.99
37856;BME280;23694;43.274;26.924;2023-08-30T10:27:49;97861.59;;;31.14;43.11
37856;BME280;23694;43.274;26.924;2023-08-30T10:30:31;97853.44;;;31.67;41.84
37856;BME280;23694;43.274;26.924;2023-08-30T10:33:20;97858.81;;;30.99;43.08
37856;BME280;23694;43.274;26.924;2023-08-30T10:36:07;97858.84;;;31.62;42.28
37856;BME280;23694;43.274;26.924;2023-08-30T10:38:54;97856.69;;;30.59;44.01
37856;BME280;23694;43.274;26.924;2023-08-30T10:41:30;97847.78;;;31.73;41.55
37856;BME280;23694;43.274;26.924;2023-08-30T10:44:08;97847.84;;;31.21;42.52
37856;BME280;23694;43.274;26.924;2023-08-30T10:46:54;97852.66;;;31.14;42.43
37856;BME280;23694;43.274;26.924;2023-08-30T10:56:03;97851.34;;;31.16;42.07
37856;BME280;23694;43.274;26.924;2023-08-30T10:58:45;97842.00;;;30.92;43.46
37856;BME280;23694;43.274;26.924;2023-08-30T11:01:17;97839.56;;;31.43;42.11
37856;BME280;23694;43.274;26.924;2023-08-30T11:03:49;97840.50;;;30.64;42.58
37856;BME280;23694;43.274;26.924;2023-08-30T11:06:23;97825.25;;;31.47;40.79
37856;BME280;23694;43.274;26.924;2023-08-30T11:09:04;97826.03;;;30.85;37.89
37856;BME280;23694;43.274;26.924;2023-08-30T11:11:47;97825.88;;;31.85;39.80
37856;BME280;23694;43.274;26.924;2023-08-30T11:14:31;97809.13;;;32.49;38.54
37856;BME280;23694;43.274;26.924;2023-08-30T11:17:02;97809.41;;;32.37;39.13
37856;BME280;23694;43.274;26.924;2023-08-30T11:19:47;97814.41;;;31.42;40.95
37856;BME280;23694;43.274;26.924;2023-08-30T11:22:26;97815.75;;;31.45;41.44
37856;BME280;23694;43.274;26.924;2023-08-30T11:25:12;97811.53;;;31.79;40.17
37856;BME280;23694;43.274;26.924;2023-08-30T11:28:02;97795.06;;;32.06;40.04
37856;BME280;23694;43.274;26.924;2023-08-30T11:30:50;97789.91;;;32.30;39.85
37856;BME280;23694;43.274;26.924;2023-08-30T11:33:21;97792.34;;;31.91;39.93
37856;BME280;23694;43.274;26.924;2023-08-30T11:35:51;97793.16;;;31.97;40.34
37856;BME280;23694;43.274;26.924;2023-08-30T11:41:13;97779.34;;;31.93;37.65
37856;BME280;23694;43.274;26.924;2023-08-30T11:44:01;97779.81;;;32.71;37.98
37856;BME280;23694;43.274;26.924;2023-08-30T11:46:40;97773.66;;;32.15;39.46
37856;BME280;23694;43.274;26.924;2023-08-30T11:52:45;97770.97;;;32.25;38.62
37856;BME280;23694;43.274;26.924;2023-08-30T11:58:39;97752.69;;;32.76;38.33
37856;BME280;23694;43.274;26.924;2023-08-30T12:01:36;97753.31;;;32.23;39.04
37856;BME280;23694;43.274;26.924;2023-08-30T12:07:26;97752.50;;;31.76;40.78
37856;BME280;23694;43.274;26.924;2023-08-30T12:10:05;97761.16;;;31.73;41.09
37856;BME280;23694;43.274;26.924;2023-08-30T12:12:58;97752.25;;;31.93;41.09
37856;BME280;23694;43.274;26.924;2023-08-30T12:15:26;97752.72;;;31.54;42.05
37856;BME280;23694;43.274;26.924;2023-08-30T12:18:11;97754.69;;;32.15;40.02
37856;BME280;23694;43.274;26.924;2023-08-30T12:20:56;97738.72;;;32.13;38.77
37856;BME280;23694;43.274;26.924;2023-08-30T12:23:42;97754.09;;;31.62;39.45
37856;BME280;23694;43.274;26.924;2023-08-30T12:26:30;97743.31;;;31.82;40.13
37856;BME280;23694;43.274;26.924;2023-08-30T12:29:05;97749.78;;;31.71;41.08
37856;BME280;23694;43.274;26.924;2023-08-30T12:31:44;97745.97;;;31.57;41.89
37856;BME280;23694;43.274;26.924;2023-08-30T12:34:30;97751.44;;;31.93;41.00
37856;BME280;23694;43.274;26.924;2023-08-30T12:37:31;97750.63;;;32.12;40.75
37856;BME280;23694;43.274;26.924;2023-08-30T12:40:16;97743.59;;;32.11;40.79
37856;BME280;23694;43.274;26.924;2023-08-30T12:42:59;97736.34;;;31.14;42.95
37856;BME280;23694;43.274;26.924;2023-08-30T12:45:50;97746.00;;;31.72;41.62
37856;BME280;23694;43.274;26.924;2023-08-30T12:48:30;97737.34;;;31.70;41.87
37856;BME280;23694;43.274;26.924;2023-08-30T12:51:04;97739.00;;;31.97;40.57
37856;BME280;23694;43.274;26.924;2023-08-30T12:53:51;97728.16;;;31.97;39.81
37856;BME280;23694;43.274;26.924;2023-08-30T12:56:30;97725.72;;;31.95;41.07
37856;BME280;23694;43.274;26.924;2023-08-30T12:59:16;97726.25;;;32.12;40.78
37856;BME280;23694;43.274;26.924;2023-08-30T13:01:53;97725.69;;;32.21;41.31
37856;BME280;23694;43.274;26.924;2023-08-30T13:04:49;97722.69;;;31.56;42.39
37856;BME280;23694;43.274;26.924;2023-08-30T13:07:59;97717.78;;;31.23;42.68
37856;BME280;23694;43.274;26.924;2023-08-30T13:10:39;97725.72;;;31.95;41.78
37856;BME280;23694;43.274;26.924;2023-08-30T13:13:09;97722.75;;;32.02;41.24
37856;BME280;23694;43.274;26.924;2023-08-30T13:15:55;97711.38;;;32.00;41.35
37856;BME280;23694;43.274;26.924;2023-08-30T13:18:58;97715.97;;;31.89;42.10
37856;BME280;23694;43.274;26.924;2023-08-30T13:24:28;97691.81;;;31.37;42.63
37856;BME280;23694;43.274;26.924;2023-08-30T13:27:07;97704.66;;;30.94;43.46
37856;BME280;23694;43.274;26.924;2023-08-30T13:30:00;97703.72;;;31.36;43.27
37856;BME280;23694;43.274;26.924;2023-08-30T13:32:38;97698.59;;;31.65;42.90
37856;BME280;23694;43.274;26.924;2023-08-30T13:35:20;97682.66;;;31.78;42.71
37856;BME280;23694;43.274;26.924;2023-08-30T13:38:08;97696.50;;;31.87;41.84
37856;BME280;23694;43.274;26.924;2023-08-30T13:41:05;97690.50;;;31.70;42.79
37856;BME280;23694;43.274;26.924;2023-08-30T13:43:52;97692.91;;;31.56;42.50
37856;BME280;23694;43.274;26.924;2023-08-30T13:55:09;97682.38;;;31.75;41.57
37856;BME280;23694;43.274;26.924;2023-08-30T13:57:51;97678.31;;;31.62;41.83
37856;BME280;23694;43.274;26.924;2023-08-30T14:00:32;97679.41;;;31.71;41.75
37856;BME280;23694;43.274;26.924;2023-08-30T14:03:29;97690.19;;;31.26;42.64
37856;BME280;23694;43.274;26.924;2023-08-30T14:06:05;97692.09;;;31.40;42.39
37856;BME280;23694;43.274;26.924;2023-08-30T14:11:28;97712.94;;;31.45;42.84
37856;BME280;23694;43.274;26.924;2023-08-30T14:14:26;97711.91;;;31.76;42.50
37856;BME280;23694;43.274;26.924;2023-08-30T14:17:04;97702.69;;;31.77;42.87
37856;BME280;23694;43.274;26.924;2023-08-30T14:19:42;97704.56;;;31.51;43.69
37856;BME280;23694;43.274;26.924;2023-08-30T14:22:34;97696.44;;;31.57;43.82
37856;BME280;23694;43.274;26.924;2023-08-30T14:25:07;97690.13;;;31.15;44.54
37856;BME280;23694;43.274;26.924;2023-08-30T14:33:24;97709.28;;;30.99;45.70
37856;BME280;23694;43.274;26.924;2023-08-30T14:36:04;97703.97;;;31.24;45.34
37856;BME280;23694;43.274;26.924;2023-08-30T14:38:36;97706.13;;;31.22;45.46
37856;BME280;23694;43.274;26.924;2023-08-30T14:41:11;97697.50;;;31.35;45.79
37856;BME280;23694;43.274;26.924;2023-08-30T14:43:52;97691.00;;;31.31;45.89
37856;BME280;23694;43.274;26.924;2023-08-30T14:46:31;97685.31;;;31.28;46.15
37856;BME280;23694;43.274;26.924;2023-08-30T14:49:13;97697.44;;;31.15;46.53
37856;BME280;23694;43.274;26.924;2023-08-30T14:51:49;97710.59;;;30.91;47.05
37856;BME280;23694;43.274;26.924;2023-08-30T14:54:20;97715.97;;;30.81;47.37
37856;BME280;23694;43.274;26.924;2023-08-30T14:56:51;97703.56;;;30.85;47.16
37856;BME280;23694;43.274;26.924;2023-08-30T14:59:24;97703.56;;;30.85;47.67
37856;BME280;23694;43.274;26.924;2023-08-30T15:01:53;97705.72;;;30.88;47.36
37856;BME280;23694;43.274;26.924;2023-08-30T15:04:21;97712.41;;;30.65;48.45
37856;BME280;23694;43.274;26.924;2023-08-30T15:06:47;97719.28;;;30.51;49.14
37856;BME280;23694;43.274;26.924;2023-08-30T15:09:18;97713.50;;;30.74;48.49
37856;BME280;23694;43.274;26.924;2023-08-30T15:12:04;97704.63;;;30.84;48.33
37856;BME280;23694;43.274;26.924;2023-08-30T15:17:23;97712.75;;;30.42;49.34
37856;BME280;23694;43.274;26.924;2023-08-30T15:20:05;97718.38;;;30.30;49.99
37856;BME280;23694;43.274;26.924;2023-08-30T15:22:48;97716.75;;;30.29;50.12
37856;BME280;23694;43.274;26.924;2023-08-30T15:25:31;97720.53;;;30.28;50.10
37856;BME280;23694;43.274;26.924;2023-08-30T15:28:00;97721.81;;;30.20;50.90
37856;BME280;23694;43.274;26.924;2023-08-30T15:30:35;97721.69;;;29.73;52.00
37856;BME280;23694;43.274;26.924;2023-08-30T15:33:05;97727.44;;;29.82;52.82
37856;BME280;23694;43.274;26.924;2023-08-30T15:35:52;97727.66;;;29.75;53.36
37856;BME280;23694;43.274;26.924;2023-08-30T15:38:31;97739.47;;;29.69;53.41
37856;BME280;23694;43.274;26.924;2023-08-30T15:41:35;97746.00;;;29.73;53.32
37856;BME280;23694;43.274;26.924;2023-08-30T15:44:06;97744.69;;;29.49;54.48
37856;BME280;23694;43.274;26.924;2023-08-30T15:52:44;97758.09;;;29.22;55.87
37856;BME280;23694;43.274;26.924;2023-08-30T15:55:37;97743.00;;;29.21;56.20
37856;BME280;23694;43.274;26.924;2023-08-30T15:58:09;97736.78;;;29.20;56.62
37856;BME280;23694;43.274;26.924;2023-08-30T16:00:54;97726.16;;;29.09;56.87
37856;BME280;23694;43.274;26.924;2023-08-30T16:03:34;97734.13;;;28.98;57.77
37856;BME280;23694;43.274;26.924;2023-08-30T16:06:20;97742.34;;;28.87;58.30
37856;BME280;23694;43.274;26.924;2023-08-30T16:11:59;97734.84;;;28.33;62.19
37856;BME280;23694;43.274;26.924;2023-08-30T16:14:45;97728.66;;;28.33;62.31
37856;BME280;23694;43.274;26.924;2023-08-30T16:17:25;97717.22;;;28.42;62.82
37856;BME280;23694;43.274;26.924;2023-08-30T16:20:25;97717.56;;;27.96;65.52
37856;BME280;23694;43.274;26.924;2023-08-30T16:23:21;97718.13;;;28.15;65.07
37856;BME280;23694;43.274;26.924;2023-08-30T16:26:03;97723.78;;;28.13;65.44
37856;BME280;23694;43.274;26.924;2023-08-30T16:31:46;97710.81;;;27.76;67.83
37856;BME280;23694;43.274;26.924;2023-08-30T16:34:42;97718.13;;;27.64;68.88
37856;BME280;23694;43.274;26.924;2023-08-30T16:37:27;97739.78;;;27.58;69.70
37856;BME280;23694;43.274;26.924;2023-08-30T16:40:05;97742.53;;;27.46;70.62
37856;BME280;23694;43.274;26.924;2023-08-30T16:42:57;97743.06;;;27.31;71.66
37856;BME280;23694;43.274;26.924;2023-08-30T16:45:49;97748.56;;;27.25;72.33
37856;BME280;23694;43.274;26.924;2023-08-30T16:48:34;97762.47;;;27.33;72.40
37856;BME280;23694;43.274;26.924;2023-08-30T16:51:06;97794.50;;;27.63;71.35
37856;BME280;23694;43.274;26.924;2023-08-30T16:54:05;97821.38;;;27.92;69.42
37856;BME280;23694;43.274;26.924;2023-08-30T16:56:47;97829.53;;;28.25;68.31